PWSweather.com
Personal Weather Stations
Station Observations

MakarauRodneyNZ

Lat: -36.52421, Lon: 174.47572

Elevation: 606

Station Type: Davis VP2

http://kaiparaweather.dynu.net/index.php

High Low Average
Temperature 60.0°F15.6°C 53.9°F12.2°C 56.3°F13.5°C
Dew Point 53.4°F11.9°C 51.2°F10.7°C 52.3°F11.3°C
Winds 8.1 mph 13.0 kmh Calm Calm 3.0 mph ENE4.8 kmh ENE
Wind Gusts 13.8 mph22.2 kmh -- 5.0 mph8.0 kmh
Humidity 93% 76% 87%
Pressure 30.16 in1021.3 mb 30.13 in1020.3 mb -
Precipitation 0.00 in0.0 mm - -
Hour Temp Dew Point Humidity Winds Wind Gusts Pressure Precip Precip Rate Daily Precip Total
12:00 AM 46.4°F8.0°C 43.6°F6.4°C 90% Calm Calm -- 30.17 in1021.7 mb - 0.00 in0.0 mm 0.00 in0.0 mm
12:10 AM 46.4°F8.0°C 43.3°F6.3°C 89% Calm Calm -- 30.16 in1021.3 mb - 0.00 in0.0 mm 0.00 in0.0 mm
12:20 AM 46.6°F8.1°C 43.8°F6.6°C 90% Calm Calm -- 30.16 in1021.3 mb - 0.00 in0.0 mm 0.00 in0.0 mm
12:30 AM 46.8°F8.2°C 43.8°F6.6°C 89% Calm Calm -- 30.16 in1021.3 mb - 0.00 in0.0 mm 0.00 in0.0 mm
12:40 AM 46.9°F8.3°C 43.8°F6.6°C 89% Calm Calm -- 30.16 in1021.3 mb - 0.00 in0.0 mm 0.00 in0.0 mm
12:50 AM 46.6°F8.1°C 43.6°F6.4°C 89% Calm Calm -- 30.16 in1021.3 mb - 0.00 in0.0 mm 0.00 in0.0 mm
01:00 AM 46.4°F8.0°C 43.3°F6.3°C 89% Calm Calm -- 30.16 in1021.3 mb - 0.00 in0.0 mm 0.00 in0.0 mm
01:10 AM 46.3°F7.9°C 43.2°F6.2°C 89% Calm Calm -- 30.16 in1021.3 mb - 0.00 in0.0 mm 0.00 in0.0 mm
01:20 AM 46.2°F7.9°C 43.2°F6.2°C 89% Calm Calm -- 30.16 in1021.3 mb - 0.00 in0.0 mm 0.00 in0.0 mm
01:30 AM 46.2°F7.9°C 43.5°F6.4°C 90% Calm Calm -- 30.16 in1021.3 mb - 0.00 in0.0 mm 0.00 in0.0 mm
01:40 AM 46.3°F7.9°C 43.5°F6.4°C 90% Calm Calm -- 30.16 in1021.3 mb - 0.00 in0.0 mm 0.00 in0.0 mm
01:50 AM 46.5°F8.1°C 43.7°F6.5°C 90% Calm Calm -- 30.16 in1021.3 mb - 0.00 in0.0 mm 0.00 in0.0 mm
02:00 AM 46.4°F8.0°C 43.6°F6.4°C 90% Calm Calm -- 30.16 in1021.3 mb - 0.00 in0.0 mm 0.00 in0.0 mm
02:10 AM 46.2°F7.9°C 43.4°F6.3°C 90% Calm Calm 1.2 mph1.9 kmh 30.15 in1021.0 mb - 0.00 in0.0 mm 0.00 in0.0 mm
02:20 AM 46.1°F7.8°C 43.3°F6.3°C 90% Calm Calm -- 30.15 in1021.0 mb - 0.00 in0.0 mm 0.00 in0.0 mm
02:30 AM 46.2°F7.9°C 43.7°F6.5°C 91% Calm Calm -- 30.15 in1021.0 mb - 0.00 in0.0 mm 0.00 in0.0 mm
02:40 AM 46.2°F7.9°C 43.4°F6.3°C 90% Calm Calm -- 30.15 in1021.0 mb - 0.00 in0.0 mm 0.00 in0.0 mm
02:50 AM 46.1°F7.8°C 43.6°F6.4°C 91% Calm Calm -- 30.15 in1021.0 mb - 0.00 in0.0 mm 0.00 in0.0 mm
03:00 AM 46.0°F7.8°C 43.5°F6.4°C 91% Calm Calm -- 30.15 in1021.0 mb - 0.00 in0.0 mm 0.00 in0.0 mm
03:10 AM 45.9°F7.7°C 43.4°F6.3°C 91% Calm Calm -- 30.15 in1021.0 mb - 0.00 in0.0 mm 0.00 in0.0 mm
03:20 AM 46.0°F7.8°C 43.5°F6.4°C 91% Calm Calm -- 30.15 in1021.0 mb - 0.00 in0.0 mm 0.00 in0.0 mm
03:30 AM 46.1°F7.8°C 43.6°F6.4°C 91% Calm Calm -- 30.14 in1020.7 mb - 0.00 in0.0 mm 0.00 in0.0 mm
03:40 AM 46.0°F7.8°C 43.5°F6.4°C 91% Calm Calm -- 30.15 in1021.0 mb - 0.00 in0.0 mm 0.00 in0.0 mm
03:50 AM 45.9°F7.7°C 43.4°F6.3°C 91% Calm Calm -- 30.15 in1021.0 mb - 0.00 in0.0 mm 0.00 in0.0 mm
04:00 AM 45.7°F7.6°C 43.3°F6.3°C 91% Calm Calm 1.2 mph1.9 kmh 30.15 in1021.0 mb - 0.00 in0.0 mm 0.00 in0.0 mm
04:20 AM 45.7°F7.6°C 43.5°F6.4°C 92% Calm Calm 2.3 mph3.7 kmh 30.14 in1020.7 mb - 0.00 in0.0 mm 0.00 in0.0 mm
04:30 AM 45.6°F7.6°C 43.4°F6.3°C 92% 1.2 mph ENE1.9 kmh ENE 3.5 mph5.6 kmh 30.14 in1020.7 mb - 0.00 in0.0 mm 0.00 in0.0 mm
04:40 AM 45.8°F7.7°C 43.6°F6.4°C 92% 1.2 mph ENE1.9 kmh ENE 2.3 mph3.7 kmh 30.14 in1020.7 mb - 0.00 in0.0 mm 0.00 in0.0 mm
04:50 AM 45.8°F7.7°C 43.6°F6.4°C 92% Calm Calm 1.2 mph1.9 kmh 30.14 in1020.7 mb - 0.00 in0.0 mm 0.00 in0.0 mm
05:00 AM 45.5°F7.5°C 43.3°F6.3°C 92% 1.2 mph ENE1.9 kmh ENE 2.3 mph3.7 kmh 30.14 in1020.7 mb - 0.00 in0.0 mm 0.00 in0.0 mm
05:10 AM 45.5°F7.5°C 43.3°F6.3°C 92% Calm Calm 3.5 mph5.6 kmh 30.14 in1020.7 mb - 0.00 in0.0 mm 0.00 in0.0 mm
05:20 AM 45.5°F7.5°C 43.3°F6.3°C 92% 1.2 mph ENE1.9 kmh ENE 3.5 mph5.6 kmh 30.14 in1020.7 mb - 0.00 in0.0 mm 0.00 in0.0 mm
05:30 AM 45.5°F7.5°C 43.3°F6.3°C 92% Calm Calm -- 30.14 in1020.7 mb - 0.00 in0.0 mm 0.00 in0.0 mm
05:40 AM 45.4°F7.4°C 43.2°F6.2°C 92% Calm Calm -- 30.14 in1020.7 mb - 0.00 in0.0 mm 0.00 in0.0 mm
05:50 AM 45.2°F7.3°C 43.3°F6.3°C 93% Calm Calm -- 30.14 in1020.7 mb - 0.00 in0.0 mm 0.00 in0.0 mm
06:00 AM 45.2°F7.3°C 43.3°F6.3°C 93% Calm Calm -- 30.15 in1021.0 mb - 0.00 in0.0 mm 0.00 in0.0 mm
06:10 AM 45.3°F7.4°C 43.4°F6.3°C 93% Calm Calm -- 30.15 in1021.0 mb - 0.00 in0.0 mm 0.00 in0.0 mm
06:20 AM 45.2°F7.3°C 43.3°F6.3°C 93% Calm Calm -- 30.14 in1020.7 mb - 0.00 in0.0 mm 0.00 in0.0 mm
06:30 AM 45.4°F7.4°C 43.5°F6.4°C 93% Calm Calm -- 30.14 in1020.7 mb - 0.00 in0.0 mm 0.00 in0.0 mm
06:40 AM 45.4°F7.4°C 43.3°F6.3°C 92% Calm Calm -- 30.15 in1021.0 mb - 0.00 in0.0 mm 0.00 in0.0 mm
06:50 AM 45.9°F7.7°C 43.9°F6.6°C 93% Calm Calm -- 30.15 in1021.0 mb - 0.00 in0.0 mm 0.00 in0.0 mm
07:00 AM 46.1°F7.8°C 43.9°F6.6°C 92% Calm Calm -- 30.16 in1021.3 mb - 0.00 in0.0 mm 0.00 in0.0 mm
07:10 AM 46.4°F8.0°C 44.2°F6.8°C 92% Calm Calm -- 30.16 in1021.3 mb - 0.00 in0.0 mm 0.00 in0.0 mm
07:20 AM 46.5°F8.1°C 44.6°F7.0°C 93% Calm Calm -- 30.16 in1021.3 mb - 0.00 in0.0 mm 0.00 in0.0 mm
07:30 AM 46.7°F8.2°C 44.8°F7.1°C 93% Calm Calm -- 30.16 in1021.3 mb - 0.00 in0.0 mm 0.00 in0.0 mm
07:40 AM 46.5°F8.1°C 44.3°F6.8°C 92% Calm Calm -- 30.16 in1021.3 mb - 0.00 in0.0 mm 0.00 in0.0 mm
07:50 AM 46.7°F8.2°C 44.8°F7.1°C 93% Calm Calm -- 30.16 in1021.3 mb - 0.00 in0.0 mm 0.00 in0.0 mm
08:00 AM 46.8°F8.2°C 44.9°F7.2°C 93% Calm Calm -- 30.17 in1021.7 mb - 0.00 in0.0 mm 0.00 in0.0 mm
08:10 AM 46.8°F8.2°C 44.8°F7.1°C 93% Calm Calm -- 30.17 in1021.7 mb - 0.00 in0.0 mm 0.00 in0.0 mm
08:20 AM 46.9°F8.3°C 45.0°F7.2°C 93% Calm Calm -- 30.17 in1021.7 mb - 0.00 in0.0 mm 0.00 in0.0 mm
08:30 AM 47.0°F8.3°C 45.4°F7.4°C 94% Calm Calm -- 30.17 in1021.7 mb - 0.00 in0.0 mm 0.00 in0.0 mm
08:40 AM 47.5°F8.6°C 45.9°F7.7°C 94% Calm Calm -- 30.18 in1022.0 mb - 0.00 in0.0 mm 0.00 in0.0 mm
08:50 AM 48.0°F8.9°C 46.4°F8.0°C 94% Calm Calm -- 30.18 in1022.0 mb - 0.00 in0.0 mm 0.00 in0.0 mm
09:00 AM 48.4°F9.1°C 46.8°F8.2°C 94% 1.2 mph ENE1.9 kmh ENE 3.5 mph5.6 kmh 30.18 in1022.0 mb - 0.00 in0.0 mm 0.00 in0.0 mm
09:10 AM 48.8°F9.3°C 47.2°F8.4°C 94% Calm Calm -- 30.18 in1022.0 mb - 0.00 in0.0 mm 0.00 in0.0 mm
09:20 AM 50.4°F10.2°C 49.0°F9.4°C 95% Calm Calm -- 30.18 in1022.0 mb - 0.00 in0.0 mm 0.00 in0.0 mm
09:30 AM 52.0°F11.1°C 50.3°F10.2°C 94% Calm Calm 3.5 mph5.6 kmh 30.18 in1022.0 mb - 0.00 in0.0 mm 0.00 in0.0 mm
09:40 AM 53.3°F11.8°C 51.4°F10.8°C 93% Calm Calm -- 30.19 in1022.4 mb - 0.00 in0.0 mm 0.00 in0.0 mm
09:50 AM 54.4°F12.4°C 51.8°F11.0°C 91% Calm Calm 3.5 mph5.6 kmh 30.18 in1022.0 mb - 0.00 in0.0 mm 0.00 in0.0 mm
10:00 AM 55.1°F12.8°C 52.2°F11.2°C 90% Calm Calm 3.5 mph5.6 kmh 30.18 in1022.0 mb - 0.00 in0.0 mm 0.00 in0.0 mm
10:10 AM 55.9°F13.3°C 52.7°F11.5°C 89% 2.3 mph NE3.7 kmh NE 4.6 mph7.4 kmh 30.19 in1022.4 mb - 0.00 in0.0 mm 0.00 in0.0 mm
10:20 AM 56.4°F13.6°C 52.9°F11.6°C 88% 6.9 mph NE11.1 kmh NE 11.5 mph18.5 kmh 30.20 in1022.7 mb - 0.00 in0.0 mm 0.00 in0.0 mm
10:30 AM 56.8°F13.8°C 53.0°F11.7°C 87% 1.2 mph ENE1.9 kmh ENE 4.6 mph7.4 kmh 30.20 in1022.7 mb - 0.00 in0.0 mm 0.00 in0.0 mm
10:40 AM 57.2°F14.0°C 53.1°F11.7°C 86% 2.3 mph ENE3.7 kmh ENE 11.5 mph18.5 kmh 30.19 in1022.4 mb - 0.00 in0.0 mm 0.00 in0.0 mm
10:50 AM 57.7°F14.3°C 53.2°F11.8°C 85% 3.5 mph NE5.6 kmh NE 8.1 mph13.0 kmh 30.19 in1022.4 mb - 0.00 in0.0 mm 0.00 in0.0 mm
11:00 AM 58.0°F14.4°C 53.8°F12.1°C 86% 4.6 mph ENE7.4 kmh ENE 6.9 mph11.1 kmh 30.19 in1022.4 mb - 0.00 in0.0 mm 0.00 in0.0 mm
11:10 AM 57.3°F14.1°C 52.8°F11.6°C 85% 3.5 mph ENE5.6 kmh ENE 3.5 mph5.6 kmh 30.18 in1022.0 mb - 0.00 in0.0 mm 0.00 in0.0 mm
11:20 AM 56.5°F13.6°C 52.3°F11.3°C 86% 1.2 mph ENE1.9 kmh ENE 3.5 mph5.6 kmh 30.18 in1022.0 mb - 0.00 in0.0 mm 0.00 in0.0 mm
11:30 AM 56.1°F13.4°C 52.0°F11.1°C 86% 3.5 mph NE5.6 kmh NE 3.5 mph5.6 kmh 30.17 in1021.7 mb - 0.00 in0.0 mm 0.00 in0.0 mm
11:40 AM 56.5°F13.6°C 52.3°F11.3°C 86% 4.6 mph ENE7.4 kmh ENE 5.8 mph9.3 kmh 30.17 in1021.7 mb - 0.00 in0.0 mm 0.00 in0.0 mm
11:50 AM 56.9°F13.8°C 52.4°F11.3°C 85% 3.5 mph ENE5.6 kmh ENE 2.3 mph3.7 kmh 30.16 in1021.3 mb - 0.00 in0.0 mm 0.00 in0.0 mm
12:00 PM 57.6°F14.2°C 52.5°F11.4°C 83% 4.6 mph NE7.4 kmh NE 10.4 mph16.7 kmh 30.16 in1021.3 mb - 0.00 in0.0 mm 0.00 in0.0 mm
12:10 PM 58.2°F14.6°C 52.7°F11.5°C 82% 1.2 mph ENE1.9 kmh ENE 2.3 mph3.7 kmh 30.15 in1021.0 mb - 0.00 in0.0 mm 0.00 in0.0 mm
12:20 PM 58.8°F14.9°C 52.6°F11.4°C 80% 1.2 mph ENE1.9 kmh ENE 9.2 mph14.8 kmh 30.15 in1021.0 mb - 0.00 in0.0 mm 0.00 in0.0 mm
12:30 PM 59.2°F15.1°C 52.7°F11.5°C 79% 3.5 mph NE5.6 kmh NE 10.4 mph16.7 kmh 30.14 in1020.7 mb - 0.00 in0.0 mm 0.00 in0.0 mm
12:40 PM 59.6°F15.3°C 53.1°F11.7°C 79% 2.3 mph ENE3.7 kmh ENE 6.9 mph11.1 kmh 30.15 in1021.0 mb - 0.00 in0.0 mm 0.00 in0.0 mm
12:50 PM 59.8°F15.4°C 52.9°F11.6°C 78% 3.5 mph ENE5.6 kmh ENE 5.8 mph9.3 kmh 30.14 in1020.7 mb - 0.00 in0.0 mm 0.00 in0.0 mm
01:00 PM 59.9°F15.5°C 53.0°F11.7°C 78% 4.6 mph ENE7.4 kmh ENE 5.8 mph9.3 kmh 30.14 in1020.7 mb - 0.00 in0.0 mm 0.00 in0.0 mm
01:10 PM 59.9°F15.5°C 52.3°F11.3°C 76% 2.3 mph ENE3.7 kmh ENE 4.6 mph7.4 kmh 30.14 in1020.7 mb - 0.00 in0.0 mm 0.00 in0.0 mm
01:20 PM 59.6°F15.3°C 52.0°F11.1°C 76% 2.3 mph NE3.7 kmh NE 2.3 mph3.7 kmh 30.14 in1020.7 mb - 0.00 in0.0 mm 0.00 in0.0 mm
01:30 PM 59.4°F15.2°C 52.9°F11.6°C 79% 4.6 mph NE7.4 kmh NE 6.9 mph11.1 kmh 30.13 in1020.3 mb - 0.00 in0.0 mm 0.00 in0.0 mm
01:40 PM 59.5°F15.3°C 52.3°F11.3°C 77% 3.5 mph NE5.6 kmh NE 4.6 mph7.4 kmh 30.13 in1020.3 mb - 0.00 in0.0 mm 0.00 in0.0 mm
01:50 PM 59.5°F15.3°C 52.0°F11.1°C 76% 3.5 mph NE5.6 kmh NE 5.8 mph9.3 kmh 30.13 in1020.3 mb - 0.00 in0.0 mm 0.00 in0.0 mm
02:00 PM 59.4°F15.2°C 52.9°F11.6°C 79% 2.3 mph ENE3.7 kmh ENE 13.8 mph22.2 kmh 30.14 in1020.7 mb - 0.00 in0.0 mm 0.00 in0.0 mm
02:10 PM 59.7°F15.4°C 52.8°F11.6°C 78% 1.2 mph ENE1.9 kmh ENE 3.5 mph5.6 kmh 30.13 in1020.3 mb - 0.00 in0.0 mm 0.00 in0.0 mm
02:20 PM 59.9°F15.5°C 52.7°F11.5°C 77% 2.3 mph NE3.7 kmh NE 3.5 mph5.6 kmh 30.13 in1020.3 mb - 0.00 in0.0 mm 0.00 in0.0 mm
02:30 PM 59.9°F15.5°C 52.7°F11.5°C 77% 2.3 mph NE3.7 kmh NE 3.5 mph5.6 kmh 30.13 in1020.3 mb - 0.00 in0.0 mm 0.00 in0.0 mm
02:40 PM 60.0°F15.6°C 52.7°F11.5°C 77% 1.2 mph NE1.9 kmh NE 3.5 mph5.6 kmh 30.13 in1020.3 mb - 0.00 in0.0 mm 0.00 in0.0 mm
02:50 PM 59.7°F15.4°C 52.5°F11.4°C 77% 4.6 mph ENE7.4 kmh ENE 10.4 mph16.7 kmh 30.14 in1020.7 mb - 0.00 in0.0 mm 0.00 in0.0 mm
03:00 PM 59.4°F15.2°C 52.9°F11.6°C 79% 4.6 mph ENE7.4 kmh ENE 10.4 mph16.7 kmh 30.13 in1020.3 mb - 0.00 in0.0 mm 0.00 in0.0 mm
03:10 PM 59.2°F15.1°C 53.0°F11.7°C 80% 4.6 mph NE7.4 kmh NE 6.9 mph11.1 kmh 30.13 in1020.3 mb - 0.00 in0.0 mm 0.00 in0.0 mm
03:20 PM 58.9°F14.9°C 53.0°F11.7°C 81% 2.3 mph NE3.7 kmh NE 5.8 mph9.3 kmh 30.13 in1020.3 mb - 0.00 in0.0 mm 0.00 in0.0 mm
03:30 PM 58.7°F14.8°C 52.9°F11.6°C 81% 2.3 mph NE3.7 kmh NE 3.5 mph5.6 kmh 30.13 in1020.3 mb - 0.00 in0.0 mm 0.00 in0.0 mm
03:40 PM 58.8°F14.9°C 53.0°F11.7°C 81% Calm Calm -- 30.13 in1020.3 mb - 0.00 in0.0 mm 0.00 in0.0 mm
03:50 PM 58.5°F14.7°C 52.7°F11.5°C 81% 2.3 mph ENE3.7 kmh ENE 3.5 mph5.6 kmh 30.13 in1020.3 mb - 0.00 in0.0 mm 0.00 in0.0 mm
04:00 PM 58.1°F14.5°C 52.9°F11.6°C 83% 2.3 mph ENE3.7 kmh ENE 5.8 mph9.3 kmh 30.13 in1020.3 mb - 0.00 in0.0 mm 0.00 in0.0 mm
04:10 PM 57.5°F14.2°C 52.7°F11.5°C 84% Calm Calm 1.2 mph1.9 kmh 30.13 in1020.3 mb - 0.00 in0.0 mm 0.00 in0.0 mm
04:20 PM 57.0°F13.9°C 52.5°F11.4°C 85% 2.3 mph ENE3.7 kmh ENE 3.5 mph5.6 kmh 30.13 in1020.3 mb - 0.00 in0.0 mm 0.00 in0.0 mm
04:30 PM 56.5°F13.6°C 52.3°F11.3°C 86% 1.2 mph ENE1.9 kmh ENE 3.5 mph5.6 kmh 30.13 in1020.3 mb - 0.00 in0.0 mm 0.00 in0.0 mm
04:40 PM 55.9°F13.3°C 52.1°F11.2°C 87% 3.5 mph ENE5.6 kmh ENE 6.9 mph11.1 kmh 30.13 in1020.3 mb - 0.00 in0.0 mm 0.00 in0.0 mm
04:50 PM 55.9°F13.3°C 52.4°F11.3°C 88% Calm Calm -- 30.13 in1020.3 mb - 0.00 in0.0 mm 0.00 in0.0 mm
05:00 PM 55.5°F13.1°C 52.0°F11.1°C 88% 2.3 mph ENE3.7 kmh ENE 3.5 mph5.6 kmh 30.13 in1020.3 mb - 0.00 in0.0 mm 0.00 in0.0 mm
05:10 PM 55.2°F12.9°C 51.7°F10.9°C 88% 1.2 mph NE1.9 kmh NE 3.5 mph5.6 kmh 30.13 in1020.3 mb - 0.00 in0.0 mm 0.00 in0.0 mm
05:20 PM 54.9°F12.7°C 51.4°F10.8°C 88% Calm Calm -- 30.14 in1020.7 mb - 0.00 in0.0 mm 0.00 in0.0 mm
05:30 PM 54.7°F12.6°C 51.5°F10.8°C 89% Calm Calm -- 30.14 in1020.7 mb - 0.00 in0.0 mm 0.00 in0.0 mm
05:40 PM 54.5°F12.5°C 51.3°F10.7°C 89% Calm Calm -- 30.14 in1020.7 mb - 0.00 in0.0 mm 0.00 in0.0 mm
05:50 PM 54.4°F12.4°C 51.2°F10.7°C 89% Calm Calm -- 30.14 in1020.7 mb - 0.00 in0.0 mm 0.00 in0.0 mm
06:00 PM 54.2°F12.3°C 51.3°F10.7°C 90% Calm Calm -- 30.14 in1020.7 mb - 0.00 in0.0 mm 0.00 in0.0 mm
06:10 PM 54.3°F12.4°C 51.4°F10.8°C 90% Calm Calm 4.6 mph7.4 kmh 30.15 in1021.0 mb - 0.00 in0.0 mm 0.00 in0.0 mm
06:20 PM 54.6°F12.6°C 51.7°F10.9°C 90% 2.3 mph NE3.7 kmh NE 4.6 mph7.4 kmh 30.15 in1021.0 mb - 0.00 in0.0 mm 0.00 in0.0 mm
06:30 PM 54.7°F12.6°C 51.9°F11.1°C 90% 2.3 mph NE3.7 kmh NE 10.4 mph16.7 kmh 30.15 in1021.0 mb - 0.00 in0.0 mm 0.00 in0.0 mm
06:40 PM 54.9°F12.7°C 52.0°F11.1°C 90% 3.5 mph ENE5.6 kmh ENE 5.8 mph9.3 kmh 30.15 in1021.0 mb - 0.00 in0.0 mm 0.00 in0.0 mm
06:50 PM 55.1°F12.8°C 52.2°F11.2°C 90% 1.2 mph NE1.9 kmh NE 4.6 mph7.4 kmh 30.15 in1021.0 mb - 0.00 in0.0 mm 0.00 in0.0 mm
07:00 PM 54.9°F12.7°C 52.0°F11.1°C 90% 4.6 mph ENE7.4 kmh ENE 6.9 mph11.1 kmh 30.15 in1021.0 mb - 0.00 in0.0 mm 0.00 in0.0 mm
07:10 PM 54.6°F12.6°C 52.0°F11.1°C 91% 3.5 mph ENE5.6 kmh ENE 5.8 mph9.3 kmh 30.15 in1021.0 mb - 0.00 in0.0 mm 0.00 in0.0 mm
07:20 PM 54.5°F12.5°C 51.9°F11.1°C 91% 3.5 mph ENE5.6 kmh ENE 8.1 mph13.0 kmh 30.15 in1021.0 mb - 0.00 in0.0 mm 0.00 in0.0 mm
07:30 PM 54.3°F12.4°C 51.7°F10.9°C 91% 3.5 mph NE5.6 kmh NE 8.1 mph13.0 kmh 30.15 in1021.0 mb - 0.00 in0.0 mm 0.00 in0.0 mm
07:40 PM 54.1°F12.3°C 51.5°F10.8°C 91% 4.6 mph NE7.4 kmh NE 6.9 mph11.1 kmh 30.15 in1021.0 mb - 0.00 in0.0 mm 0.00 in0.0 mm
07:50 PM 54.0°F12.2°C 51.5°F10.8°C 91% 4.6 mph NE7.4 kmh NE 8.1 mph13.0 kmh 30.14 in1020.7 mb - 0.00 in0.0 mm 0.00 in0.0 mm
08:00 PM 54.1°F12.3°C 51.5°F10.8°C 91% 1.2 mph NE1.9 kmh NE 3.5 mph5.6 kmh 30.15 in1021.0 mb - 0.00 in0.0 mm 0.00 in0.0 mm
08:10 PM 54.0°F12.2°C 51.4°F10.8°C 91% 1.2 mph NE1.9 kmh NE 3.5 mph5.6 kmh 30.14 in1020.7 mb - 0.00 in0.0 mm 0.00 in0.0 mm
08:20 PM 53.9°F12.2°C 51.7°F10.9°C 92% 1.2 mph NE1.9 kmh NE 5.8 mph9.3 kmh 30.15 in1021.0 mb - 0.00 in0.0 mm 0.00 in0.0 mm
08:30 PM 54.0°F12.2°C 51.4°F10.8°C 91% 1.2 mph ENE1.9 kmh ENE 2.3 mph3.7 kmh 30.15 in1021.0 mb - 0.00 in0.0 mm 0.00 in0.0 mm
08:40 PM 54.1°F12.3°C 51.8°F11.0°C 92% 1.2 mph ENE1.9 kmh ENE 3.5 mph5.6 kmh 30.15 in1021.0 mb - 0.00 in0.0 mm 0.00 in0.0 mm
08:50 PM 54.1°F12.3°C 51.8°F11.0°C 92% 1.2 mph ENE1.9 kmh ENE 3.5 mph5.6 kmh 30.15 in1021.0 mb - 0.00 in0.0 mm 0.00 in0.0 mm
09:00 PM 54.2°F12.3°C 51.9°F11.1°C 92% 2.3 mph NE3.7 kmh NE 3.5 mph5.6 kmh 30.15 in1021.0 mb - 0.00 in0.0 mm 0.00 in0.0 mm
09:10 PM 54.1°F12.3°C 51.8°F11.0°C 92% 2.3 mph ENE3.7 kmh ENE 4.6 mph7.4 kmh 30.16 in1021.3 mb - 0.00 in0.0 mm 0.00 in0.0 mm
09:20 PM 54.1°F12.3°C 51.8°F11.0°C 92% 2.3 mph E3.7 kmh E 5.8 mph9.3 kmh 30.15 in1021.0 mb - 0.00 in0.0 mm 0.00 in0.0 mm
09:30 PM 54.1°F12.3°C 51.8°F11.0°C 92% 2.3 mph ENE3.7 kmh ENE 4.6 mph7.4 kmh 30.15 in1021.0 mb - 0.00 in0.0 mm 0.00 in0.0 mm
09:40 PM 54.2°F12.3°C 51.9°F11.1°C 92% 2.3 mph ENE3.7 kmh ENE 8.1 mph13.0 kmh 30.15 in1021.0 mb - 0.00 in0.0 mm 0.00 in0.0 mm
09:50 PM 54.2°F12.3°C 51.9°F11.1°C 92% 2.3 mph NE3.7 kmh NE 4.6 mph7.4 kmh 30.16 in1021.3 mb - 0.00 in0.0 mm 0.00 in0.0 mm
10:00 PM 54.2°F12.3°C 51.9°F11.1°C 92% 2.3 mph NE3.7 kmh NE 5.8 mph9.3 kmh 30.15 in1021.0 mb - 0.00 in0.0 mm 0.00 in0.0 mm
10:10 PM 54.3°F12.4°C 52.3°F11.3°C 93% 2.3 mph NE3.7 kmh NE 4.6 mph7.4 kmh 30.15 in1021.0 mb - 0.00 in0.0 mm 0.00 in0.0 mm
10:20 PM 54.3°F12.4°C 52.3°F11.3°C 93% 1.2 mph ENE1.9 kmh ENE 2.3 mph3.7 kmh 30.15 in1021.0 mb - 0.00 in0.0 mm 0.00 in0.0 mm
10:30 PM 54.3°F12.4°C 52.3°F11.3°C 93% 2.3 mph E3.7 kmh E 11.5 mph18.5 kmh 30.15 in1021.0 mb - 0.00 in0.0 mm 0.00 in0.0 mm
10:40 PM 54.4°F12.4°C 52.5°F11.4°C 93% 1.2 mph NE1.9 kmh NE 2.3 mph3.7 kmh 30.15 in1021.0 mb - 0.00 in0.0 mm 0.00 in0.0 mm
10:50 PM 54.5°F12.5°C 52.5°F11.4°C 93% 2.3 mph ENE3.7 kmh ENE 10.4 mph16.7 kmh 30.16 in1021.3 mb - 0.00 in0.0 mm 0.00 in0.0 mm
11:00 PM 54.7°F12.6°C 52.7°F11.5°C 93% 4.6 mph NE7.4 kmh NE 11.5 mph18.5 kmh 30.16 in1021.3 mb - 0.00 in0.0 mm 0.00 in0.0 mm
11:10 PM 54.8°F12.7°C 52.8°F11.6°C 93% 5.8 mph E9.3 kmh E 11.5 mph18.5 kmh 30.16 in1021.3 mb - 0.00 in0.0 mm 0.00 in0.0 mm
11:20 PM 55.0°F12.8°C 53.1°F11.7°C 93% 8.1 mph ENE13.0 kmh ENE 11.5 mph18.5 kmh 30.16 in1021.3 mb - 0.00 in0.0 mm 0.00 in0.0 mm
11:30 PM 55.2°F12.9°C 53.2°F11.8°C 93% 4.6 mph ENE7.4 kmh ENE 11.5 mph18.5 kmh 30.16 in1021.3 mb - 0.00 in0.0 mm 0.00 in0.0 mm
11:40 PM 55.3°F12.9°C 53.3°F11.8°C 93% 6.9 mph ENE11.1 kmh ENE 8.1 mph13.0 kmh 30.16 in1021.3 mb - 0.00 in0.0 mm 0.00 in0.0 mm
11:50 PM 55.4°F13.0°C 53.4°F11.9°C 93% 4.6 mph ENE7.4 kmh ENE 5.8 mph9.3 kmh 30.16 in1021.3 mb - 0.00 in0.0 mm 0.00 in0.0 mm